Time;durP1;ratioP1;P1;durP2;ratioP2;P2;SDS_P1;SDS_P2;PMS_P1;PMS_P2;Temp;Humidity;BMP_temperature;BMP_pressure;BME280_temperature;BME280_humidity;BME280_pressure;Samples;Min_cycle;Max_cycle;Signal;HPM_P1;HPM_P2
2022/06/19 00:01:09;;;;;;;;;;;;;;;16.75;60.04;100758.34;1773361;81;20254;-55
2022/06/19 00:04:15;;;;;;;;;;;;;;;16.70;60.06;100760.04;1772138;81;20188;-55
2022/06/19 00:07:20;;;;;;;;;;;;;;;16.64;60.16;100758.08;1773477;81;20215;-56
2022/06/19 00:10:25;;;;;;;;;;;;;;;16.60;60.27;100763.70;1773405;81;20200;-56
2022/06/19 00:13:30;;;;;;;;;;;;;;;16.56;60.34;100765.16;1749766;80;20244;-56
2022/06/19 00:16:36;;;;;;;;;;;;;;;16.52;60.47;100770.27;1754094;81;20180;-55
2022/06/19 00:19:41;;;;;;;;;;;;;;;16.48;60.50;100773.62;1754080;81;20200;-55
2022/06/19 00:22:44;;;;;;;;;;;;;;;16.42;60.58;100777.52;1753999;81;20209;-55
2022/06/19 00:25:49;;;;;;;;;;;;;;;16.40;60.73;100779.63;1753790;81;20248;-56
2022/06/19 00:28:54;;;;;;;;;;;;;;;16.37;60.85;100775.89;1754007;81;20237;-55
2022/06/19 00:32:00;;;;;;;;;;;;;;;16.34;60.87;100785.11;1754180;81;20192;-56
2022/06/19 00:35:04;;;;;;;;;;;;;;;16.29;60.87;100781.58;1754174;81;20256;-55
2022/06/19 00:38:08;;;;;;;;;;;;;;;16.27;60.95;100782.81;1754148;81;20244;-55
2022/06/19 00:41:12;;;;;;;;;;;;;;;16.24;60.97;100784.61;1754335;81;20556;-55
2022/06/19 00:44:16;;;;;;;;;;;;;;;16.19;61.06;100786.59;1754572;81;20209;-55
2022/06/19 00:47:34;;;;;;;;;;;;;;;16.19;61.15;100785.22;1754248;81;20196;-55
2022/06/19 00:50:40;;;;;;;;;;;;;;;16.18;61.27;100790.43;1700464;84;20193;-56
2022/06/19 00:53:52;;;;;;;;;;;;;;;16.18;61.40;100791.81;1700557;84;20197;-55
2022/06/19 00:56:57;;;;;;;;;;;;;;;16.21;61.54;100793.30;1700471;84;20525;-55
2022/06/19 01:00:04;;;;;;;;;;;;;;;16.24;61.68;100800.66;1700543;84;20260;-55
2022/06/19 01:03:16;;;;;;;;;;;;;;;16.25;61.75;100799.59;1700491;83;20185;-56
2022/06/19 01:06:22;;;;;;;;;;;;;;;16.27;61.80;100800.77;1700516;84;20580;-55
2022/06/19 01:09:27;;;;;;;;;;;;;;;16.26;61.85;100808.23;1700478;83;20241;-55
2022/06/19 01:12:33;;;;;;;;;;;;;;;16.25;61.83;100809.27;1700745;84;20557;-55
2022/06/19 01:15:37;;;;;;;;;;;;;;;16.23;61.82;100811.92;1754384;80;20231;-55
2022/06/19 01:18:45;;;;;;;;;;;;;;;16.20;61.79;100817.34;1773496;80;20536;-56
2022/06/19 01:21:57;;;;;;;;;;;;;;;16.15;61.79;100817.08;1773442;81;20188;-55
2022/06/19 01:25:16;;;;;;;;;;;;;;;16.12;61.80;100820.25;1773452;81;20184;-55
2022/06/19 01:31:49;;;;;;;;;;;;;;;16.07;61.98;100821.38;1772677;81;20211;-56
2022/06/19 01:34:54;;;;;;;;;;;;;;;16.03;61.91;100821.42;1773378;80;20559;-55
2022/06/19 01:37:59;;;;;;;;;;;;;;;15.96;61.82;100819.16;1773445;81;20203;-55
2022/06/19 01:41:07;;;;;;;;;;;;;;;15.90;61.81;100821.31;1773132;81;20204;-55
2022/06/19 01:44:12;;;;;;;;;;;;;;;15.85;61.85;100821.60;1773334;81;20223;-55
2022/06/19 01:47:15;;;;;;;;;;;;;;;15.82;61.99;100836.67;1773189;81;20223;-55
2022/06/19 01:50:24;;;;;;;;;;;;;;;15.79;62.12;100835.66;1753399;80;20171;-55
2022/06/19 01:53:31;;;;;;;;;;;;;;;15.78;62.25;100836.72;1773338;81;20188;-55
2022/06/19 01:56:37;;;;;;;;;;;;;;;15.76;62.22;100840.75;1773024;81;20552;-56
2022/06/19 01:59:42;;;;;;;;;;;;;;;15.74;62.23;100840.08;1773504;81;20196;-55
2022/06/19 02:02:47;;;;;;;;;;;;;;;15.73;62.40;100840.59;1773236;81;20551;-55
2022/06/19 02:05:53;;;;;;;;;;;;;;;15.74;62.49;100840.08;1773431;81;20547;-55
2022/06/19 02:08:57;;;;;;;;;;;;;;;15.76;62.62;100845.72;1773393;81;20224;-55
2022/06/19 02:12:02;;;;;;;;;;;;;;;15.81;62.77;100848.74;1772245;81;20240;-56
2022/06/19 02:15:12;;;;;;;;;;;;;;;15.87;62.86;100841.05;1757704;80;20215;-58
2022/06/19 02:18:18;;;;;;;;;;;;;;;15.92;62.92;100845.45;1775881;81;20195;-55
2022/06/19 02:21:25;;;;;;;;;;;;;;;15.97;62.96;100844.33;1775844;81;20196;-55
2022/06/19 02:24:30;;;;;;;;;;;;;;;16.04;63.01;100848.02;1775860;81;20247;-56
2022/06/19 02:27:34;;;;;;;;;;;;;;;16.08;62.98;100852.07;1775743;81;20187;-55
2022/06/19 02:30:37;;;;;;;;;;;;;;;16.10;62.84;100854.63;1798838;79;20508;-55
2022/06/19 02:33:45;;;;;;;;;;;;;;;16.12;62.85;100857.53;1775762;81;20228;-55
2022/06/19 02:36:56;;;;;;;;;;;;;;;16.16;62.93;100857.45;1775875;81;20211;-55
2022/06/19 02:40:14;;;;;;;;;;;;;;;16.19;62.89;100857.05;1775722;81;20548;-56
2022/06/19 02:43:24;;;;;;;;;;;;;;;16.23;62.85;100859.75;1774637;81;20255;-55
2022/06/19 02:46:28;;;;;;;;;;;;;;;16.27;62.86;100861.04;1776057;81;20275;-55
2022/06/19 02:49:32;;;;;;;;;;;;;;;16.32;62.93;100862.68;1775854;81;20588;-55
2022/06/19 02:52:37;;;;;;;;;;;;;;;16.36;62.95;100859.82;1775938;81;20184;-56
2022/06/19 02:55:41;;;;;;;;;;;;;;;16.42;63.05;100865.95;1775983;81;20204;-56
2022/06/19 02:58:47;;;;;;;;;;;;;;;16.46;63.11;100869.17;1775954;81;20199;-55
2022/06/19 03:01:51;;;;;;;;;;;;;;;16.50;63.16;100867.73;1775912;81;20257;-56
2022/06/19 03:05:02;;;;;;;;;;;;;;;16.57;63.22;100867.78;1775880;81;20219;-55
2022/06/19 03:08:06;;;;;;;;;;;;;;;16.63;63.28;100865.58;1775917;81;20247;-55
2022/06/19 03:11:13;;;;;;;;;;;;;;;16.70;63.30;100865.94;1775867;81;20235;-55
2022/06/19 03:14:17;;;;;;;;;;;;;;;16.74;63.24;100867.25;1775930;81;20196;-55
2022/06/19 03:17:26;;;;;;;;;;;;;;;16.81;63.24;100868.13;1776277;77;20239;-56
2022/06/19 03:20:32;;;;;;;;;;;;;;;16.88;63.33;100876.46;1775976;81;20203;-55
2022/06/19 03:23:36;;;;;;;;;;;;;;;16.92;63.31;100872.25;1775791;81;20176;-55
2022/06/19 03:26:40;;;;;;;;;;;;;;;17.00;63.37;100875.67;1775951;81;20207;-55
2022/06/19 03:29:44;;;;;;;;;;;;;;;17.03;63.29;100871.66;1775795;81;20204;-55
2022/06/19 03:32:51;;;;;;;;;;;;;;;17.10;63.37;100868.38;1775839;81;20192;-55
2022/06/19 03:35:56;;;;;;;;;;;;;;;17.20;63.44;100871.63;1775858;81;20196;-55
2022/06/19 03:39:00;;;;;;;;;;;;;;;17.30;63.50;100880.40;1775980;81;20199;-56
2022/06/19 03:42:07;;;;;;;;;;;;;;;17.39;63.55;100870.32;1775789;81;20223;-55
2022/06/19 03:45:13;;;;;;;;;;;;;;;17.50;63.60;100871.66;1775850;81;20227;-56
2022/06/19 03:48:18;;;;;;;;;;;;;;;17.57;63.60;100873.37;1774786;80;20214;-55
2022/06/19 03:51:24;;;;;;;;;;;;;;;17.68;63.67;100872.75;1775469;81;20605;-56
2022/06/19 03:54:28;;;;;;;;;;;;;;;17.80;63.72;100875.25;1775833;81;20253;-55
2022/06/19 03:57:32;;;;;;;;;;;;;;;17.91;63.68;100880.69;1775818;81;20554;-55
2022/06/19 04:00:39;;;;;;;;;;;;;;;18.00;63.68;100882.17;1775908;81;20178;-56
2022/06/19 04:03:45;;;;;;;;;;;;;;;18.10;63.69;100888.16;1775326;81;20321;-55
2022/06/19 04:06:50;;;;;;;;;;;;;;;18.17;63.68;100886.23;1767291;80;20236;-55
2022/06/19 04:09:55;;;;;;;;;;;;;;;18.23;63.64;100888.70;1740452;82;20202;-55
2022/06/19 04:13:00;;;;;;;;;;;;;;;18.31;63.68;100880.17;1742053;82;20210;-55
2022/06/19 04:16:04;;;;;;;;;;;;;;;18.39;63.71;100889.17;1742900;80;20250;-55
2022/06/19 04:19:10;;;;;;;;;;;;;;;18.48;63.68;100886.48;1747377;81;20200;-55
2022/06/19 04:22:17;;;;;;;;;;;;;;;18.58;63.71;100886.91;1740987;81;20262;-55
2022/06/19 04:25:21;;;;;;;;;;;;;;;18.69;63.72;100893.70;1728355;82;20181;-56
2022/06/19 04:28:26;;;;;;;;;;;;;;;18.80;63.69;100891.13;1727241;83;20566;-55
2022/06/19 04:31:32;;;;;;;;;;;;;;;18.91;63.68;100891.85;1723460;83;20274;-56
2022/06/19 04:34:38;;;;;;;;;;;;;;;19.02;63.72;100884.24;1727934;82;20274;-55
2022/06/19 04:37:43;;;;;;;;;;;;;;;19.17;63.72;100890.92;1727302;83;20661;-56
2022/06/19 04:40:48;;;;;;;;;;;;;;;19.28;63.70;100881.94;1727161;83;20258;-55
2022/06/19 04:43:53;;;;;;;;;;;;;;;19.40;63.70;100890.41;1727770;83;20619;-55
2022/06/19 04:46:59;;;;;;;;;;;;;;;19.52;63.66;100888.66;1728005;83;20531;-55
2022/06/19 04:50:04;;;;;;;;;;;;;;;19.63;63.65;100899.89;1727968;83;20543;-56
2022/06/19 04:53:09;;;;;;;;;;;;;;;19.75;63.62;100902.83;1727774;83;20210;-55
2022/06/19 04:56:15;;;;;;;;;;;;;;;19.87;63.64;100903.84;1728193;83;20194;-55
2022/06/19 04:59:19;;;;;;;;;;;;;;;19.97;63.64;100911.13;1727992;82;20203;-55
2022/06/19 05:02:23;;;;;;;;;;;;;;;20.08;63.63;100918.75;1728110;83;20549;-54
2022/06/19 05:05:28;;;;;;;;;;;;;;;20.17;63.56;100913.29;1727814;83;20258;-53
2022/06/19 05:08:35;;;;;;;;;;;;;;;20.25;63.57;100916.62;1727894;83;20242;-54
2022/06/19 05:11:40;;;;;;;;;;;;;;;20.38;63.57;100915.14;1730728;82;20572;-53
2022/06/19 05:14:45;;;;;;;;;;;;;;;20.48;63.54;100906.28;1728107;83;20199;-54
2022/06/19 05:17:49;;;;;;;;;;;;;;;20.57;63.46;100909.94;1726203;83;20531;-54
2022/06/19 05:20:55;;;;;;;;;;;;;;;20.69;63.47;100912.84;1725314;82;20218;-53
2022/06/19 05:24:00;;;;;;;;;;;;;;;20.78;63.42;100912.31;1711101;83;20258;-52
2022/06/19 05:27:04;;;;;;;;;;;;;;;20.89;63.35;100917.66;1726206;83;20182;-50
2022/06/19 05:30:09;;;;;;;;;;;;;;;20.99;63.26;100921.33;1726239;82;20210;-53
2022/06/19 05:33:17;;;;;;;;;;;;;;;21.07;63.19;100920.50;1726292;82;20203;-52
2022/06/19 05:36:21;;;;;;;;;;;;;;;21.16;63.10;100922.42;1726204;82;20247;-52
2022/06/19 05:39:25;;;;;;;;;;;;;;;21.25;63.07;100917.70;1726047;82;20206;-51
2022/06/19 05:42:30;;;;;;;;;;;;;;;21.35;63.02;100922.20;1741796;80;20208;-51
2022/06/19 05:45:34;;;;;;;;;;;;;;;21.43;62.99;100926.06;1742067;82;20564;-52
2022/06/19 05:48:41;;;;;;;;;;;;;;;21.51;62.93;100928.54;1724539;81;20227;-51
2022/06/19 05:51:47;;;;;;;;;;;;;;;21.61;62.89;100923.80;1736096;82;20196;-51
2022/06/19 05:54:54;;;;;;;;;;;;;;;21.71;62.91;100924.94;1742711;82;20268;-51
2022/06/19 05:58:03;;;;;;;;;;;;;;;21.82;62.86;100917.73;1722783;82;20218;-50
2022/06/19 06:01:07;;;;;;;;;;;;;;;21.93;62.82;100912.22;1729739;82;20638;-52
2022/06/19 06:04:12;;;;;;;;;;;;;;;22.02;62.71;100909.95;1753363;82;20565;-51
2022/06/19 06:07:18;;;;;;;;;;;;;;;22.10;62.57;100899.28;1753667;82;20207;-51
2022/06/19 06:10:24;;;;;;;;;;;;;;;22.18;62.42;100900.91;1755835;82;20184;-52
2022/06/19 06:13:30;;;;;;;;;;;;;;;22.24;62.35;100898.55;1755953;82;20196;-52
2022/06/19 06:16:34;;;;;;;;;;;;;;;22.29;62.28;100891.72;1755895;81;20228;-51
2022/06/19 06:19:40;;;;;;;;;;;;;;;22.40;62.20;100894.20;1754973;81;20590;-52
2022/06/19 06:22:46;;;;;;;;;;;;;;;22.48;62.18;100887.73;1758039;82;20244;-53
2022/06/19 06:25:52;;;;;;;;;;;;;;;22.57;62.00;100888.24;1757950;82;20312;-52
2022/06/19 06:28:57;;;;;;;;;;;;;;;22.61;61.75;100894.49;1757304;82;20204;-51
2022/06/19 06:32:01;;;;;;;;;;;;;;;22.65;61.64;100896.27;1756144;81;20215;-52
2022/06/19 06:35:06;;;;;;;;;;;;;;;22.70;61.57;100900.04;1756764;82;20244;-55
2022/06/19 06:38:10;;;;;;;;;;;;;;;22.77;61.56;100901.32;1757447;82;20311;-52
2022/06/19 06:41:19;;;;;;;;;;;;;;;22.86;61.56;100904.91;1747862;82;20541;-53
2022/06/19 06:44:23;;;;;;;;;;;;;;;22.96;61.48;100909.30;1758129;81;20260;-52
2022/06/19 06:47:29;;;;;;;;;;;;;;;23.03;61.30;100918.42;1757705;82;20284;-51
2022/06/19 06:50:36;;;;;;;;;;;;;;;23.10;61.16;100907.95;1757257;82;20243;-51
2022/06/19 06:53:41;;;;;;;;;;;;;;;23.16;60.99;100900.02;1757755;82;20589;-53
2022/06/19 06:56:45;;;;;;;;;;;;;;;23.21;60.80;100902.06;1757384;82;20244;-52
2022/06/19 06:59:52;;;;;;;;;;;;;;;23.28;60.71;100906.98;1742035;82;20225;-53
2022/06/19 07:02:59;;;;;;;;;;;;;;;23.36;60.58;100908.00;1750128;82;20216;-52
2022/06/19 07:06:05;;;;;;;;;;;;;;;23.44;60.47;100903.43;1757027;81;20255;-51
2022/06/19 07:09:09;;;;;;;;;;;;;;;23.52;60.33;100903.91;1757184;82;20280;-53
2022/06/19 07:12:16;;;;;;;;;;;;;;;23.64;60.18;100903.88;1757772;82;20189;-53
2022/06/19 07:15:22;;;;;;;;;;;;;;;23.77;60.05;100897.97;1757890;82;20188;-53
2022/06/19 07:18:26;;;;;;;;;;;;;;;23.93;59.94;100894.37;1758005;82;20240;-53
2022/06/19 07:21:31;;;;;;;;;;;;;;;24.08;59.75;100894.70;1757159;80;20544;-52
2022/06/19 07:24:37;;;;;;;;;;;;;;;24.21;59.52;100899.99;1756371;81;20196;-52
2022/06/19 07:27:42;;;;;;;;;;;;;;;24.33;59.26;100905.49;1743054;81;20221;-53
2022/06/19 07:30:48;;;;;;;;;;;;;;;24.41;58.99;100893.34;1734912;81;20197;-52
2022/06/19 07:33:54;;;;;;;;;;;;;;;24.55;58.90;100895.23;1745760;81;20203;-53
2022/06/19 07:37:01;;;;;;;;;;;;;;;24.73;58.84;100890.28;1749744;82;20267;-53
2022/06/19 07:40:05;;;;;;;;;;;;;;;24.89;58.70;100889.38;1726955;83;20187;-53
2022/06/19 07:43:12;;;;;;;;;;;;;;;25.04;58.53;100892.42;1727897;83;20227;-53
2022/06/19 07:46:18;;;;;;;;;;;;;;;25.17;58.19;100879.98;1727560;83;20199;-52
2022/06/19 07:52:49;;;;;;;;;;;;;;;25.50;57.73;100887.48;1768940;80;20210;-53
2022/06/19 07:55:52;;;;;;;;;;;;;;;25.66;57.46;100892.14;1775616;80;20201;-52
2022/06/19 07:58:59;;;;;;;;;;;;;;;25.79;57.15;100893.14;1775831;80;20292;-53
2022/06/19 08:02:02;;;;;;;;;;;;;;;25.84;56.84;100880.58;1776549;80;20241;-52
2022/06/19 08:05:06;;;;;;;;;;;;;;;25.89;56.61;100884.85;1775850;80;20214;-52
2022/06/19 08:08:14;;;;;;;;;;;;;;;25.73;56.26;100883.84;1776377;80;20201;-53
2022/06/19 08:11:20;;;;;;;;;;;;;;;25.53;56.07;100879.37;1775824;80;20637;-52
2022/06/19 08:14:27;;;;;;;;;;;;;;;25.32;56.02;100877.41;1769841;81;20238;-52
2022/06/19 08:17:32;;;;;;;;;;;;;;;25.13;55.90;100878.83;1771233;80;20206;-52
2022/06/19 08:20:37;;;;;;;;;;;;;;;25.02;55.82;100889.02;1770080;80;20597;-51
2022/06/19 08:23:43;;;;;;;;;;;;;;;24.94;55.79;100873.22;1775489;80;20206;-53
2022/06/19 08:26:54;;;;;;;;;;;;;;;25.03;55.74;100868.32;1774764;80;20245;-53
2022/06/19 08:29:58;;;;;;;;;;;;;;;25.14;55.61;100853.02;1775927;80;20225;-51
2022/06/19 08:33:02;;;;;;;;;;;;;;;25.28;55.47;100857.13;1775828;80;20510;-54
2022/06/19 08:36:10;;;;;;;;;;;;;;;25.40;55.24;100851.75;1765227;80;20178;-53
2022/06/19 08:39:20;;;;;;;;;;;;;;;25.53;55.05;100844.89;1775040;80;20214;-53
2022/06/19 08:42:44;;;;;;;;;;;;;;;25.66;54.89;100850.06;1774475;80;20225;-54
2022/06/19 08:46:26;;;;;;;;;;;;;;;25.76;54.63;100845.98;1773847;80;20273;-55
2022/06/19 08:49:54;;;;;;;;;;;;;;;25.84;54.46;100847.77;1774708;80;20199;-56
2022/06/19 08:53:19;;;;;;;;;;;;;;;26.01;54.31;100851.89;1775593;80;20237;-55
2022/06/19 08:56:43;;;;;;;;;;;;;;;26.26;54.21;100850.72;1775057;80;20194;-54
2022/06/19 09:00:08;;;;;;;;;;;;;;;26.43;53.75;100839.64;1775783;80;20195;-53
2022/06/19 09:06:53;;;;;;;;;;;;;;;26.88;53.48;100839.16;1725671;80;20285;-55
2022/06/19 09:10:09;;;;;;;;;;;;;;;27.13;53.15;100833.67;1776471;80;20225;-54
2022/06/19 09:13:34;;;;;;;;;;;;;;;27.29;52.73;100833.23;1775654;80;20185;-53
2022/06/19 09:16:42;;;;;;;;;;;;;;;27.26;52.22;100843.05;1775865;80;20239;-54
2022/06/19 09:20:00;;;;;;;;;;;;;;;27.07;51.90;100835.31;1775639;80;20222;-54
2022/06/19 09:23:26;;;;;;;;;;;;;;;26.93;51.64;100841.14;1746214;81;20202;-55
2022/06/19 09:26:42;;;;;;;;;;;;;;;26.84;51.51;100838.02;1746514;82;20210;-55
2022/06/19 09:30:09;;;;;;;;;;;;;;;26.95;51.33;100829.94;1746307;82;20206;-54
2022/06/19 09:33:42;;;;;;;;;;;;;;;26.99;51.11;100831.06;1746972;82;20590;-55
2022/06/19 09:37:00;;;;;;;;;;;;;;;27.10;50.83;100829.17;1746637;82;20205;-54
2022/06/19 09:40:11;;;;;;;;;;;;;;;27.22;50.70;100835.41;1728781;83;20194;-55
2022/06/19 09:43:27;;;;;;;;;;;;;;;27.18;50.32;100825.84;1738748;82;20206;-54
2022/06/19 09:46:39;;;;;;;;;;;;;;;27.05;49.95;100821.53;1747237;82;20209;-54
2022/06/19 09:49:57;;;;;;;;;;;;;;;26.86;49.78;100823.11;1748805;80;20206;-54
2022/06/19 09:53:14;;;;;;;;;;;;;;;26.70;49.71;100824.16;1758253;80;20252;-55
2022/06/19 09:56:27;;;;;;;;;;;;;;;26.57;49.60;100817.57;1766285;80;20310;-55
2022/06/19 09:59:40;;;;;;;;;;;;;;;26.67;49.61;100813.44;1737084;80;20213;-54
2022/06/19 10:02:56;;;;;;;;;;;;;;;26.90;49.41;100824.28;1744817;82;20202;-54
2022/06/19 10:06:25;;;;;;;;;;;;;;;27.04;49.18;100820.41;1744017;80;20242;-55
2022/06/19 10:09:38;;;;;;;;;;;;;;;27.30;49.15;100814.69;1742741;82;20245;-54
2022/06/19 10:12:48;;;;;;;;;;;;;;;27.59;48.93;100811.67;1742657;82;20222;-54
2022/06/19 10:15:53;;;;;;;;;;;;;;;27.64;48.38;100817.31;1751251;80;20219;-54
2022/06/19 10:19:01;;;;;;;;;;;;;;;27.43;48.04;100809.92;1717166;83;20196;-53
2022/06/19 10:22:31;;;;;;;;;;;;;;;27.47;47.96;100813.89;1717059;81;20267;-56
2022/06/19 10:25:56;;;;;;;;;;;;;;;27.47;47.74;100816.70;1732946;82;20196;-55
2022/06/19 10:29:10;;;;;;;;;;;;;;;27.47;47.53;100818.66;1718360;83;20196;-56
2022/06/19 10:32:27;;;;;;;;;;;;;;;27.43;47.25;100815.55;1718436;83;20200;-55
2022/06/19 10:35:38;;;;;;;;;;;;;;;27.33;46.94;100814.13;1717937;83;20219;-55
2022/06/19 10:38:59;;;;;;;;;;;;;;;27.11;46.87;100809.77;1717566;83;20611;-55
2022/06/19 10:42:22;;;;;;;;;;;;;;;27.10;46.95;100793.45;1726258;80;20476;-54
2022/06/19 10:45:47;;;;;;;;;;;;;;;27.32;46.93;100799.77;1748943;81;20617;-54
2022/06/19 10:48:58;;;;;;;;;;;;;;;27.58;46.77;100804.36;1747379;82;20593;-55
2022/06/19 10:52:08;;;;;;;;;;;;;;;27.68;46.41;100798.77;1747303;82;20217;-55
2022/06/19 10:55:46;;;;;;;;;;;;;;;27.71;46.13;100798.21;1747545;82;20202;-55
2022/06/19 10:58:53;;;;;;;;;;;;;;;27.78;45.83;100783.29;1747514;82;20273;-55
2022/06/19 11:05:49;;;;;;;;;;;;;;;28.18;45.54;100787.31;1747434;82;20277;-55
2022/06/19 11:08:58;;;;;;;;;;;;;;;28.40;45.26;100778.00;1776187;81;20203;-53
2022/06/19 11:12:04;;;;;;;;;;;;;;;28.63;45.04;100782.50;1746176;82;20592;-53
2022/06/19 11:15:14;;;;;;;;;;;;;;;28.80;44.76;100783.02;1746393;82;20293;-54
2022/06/19 11:18:29;;;;;;;;;;;;;;;28.92;44.52;100779.30;1748064;81;20198;-54
2022/06/19 11:21:40;;;;;;;;;;;;;;;28.96;44.08;100779.58;1747189;82;20206;-53
2022/06/19 11:24:46;;;;;;;;;;;;;;;28.97;43.88;100774.24;1767433;81;20207;-54
2022/06/19 11:27:59;;;;;;;;;;;;;;;29.01;43.64;100775.34;1753242;80;20236;-54
2022/06/19 11:31:07;;;;;;;;;;;;;;;28.97;43.36;100775.06;1776296;81;20559;-54
2022/06/19 11:34:44;;;;;;;;;;;;;;;28.91;43.10;100773.95;1753045;81;20204;-55
2022/06/19 11:38:01;;;;;;;;;;;;;;;28.93;42.90;100776.78;1738955;82;20592;-56
2022/06/19 11:41:08;;;;;;;;;;;;;;;28.99;42.67;100769.14;1752082;82;20589;-55
2022/06/19 11:44:22;;;;;;;;;;;;;;;29.08;42.39;100768.87;1754524;82;20201;-56
2022/06/19 11:47:45;;;;;;;;;;;;;;;29.04;42.03;100771.94;1754935;82;20263;-56
2022/06/19 11:50:57;;;;;;;;;;;;;;;29.06;41.94;100782.37;1746166;82;20260;-56
2022/06/19 11:54:03;;;;;;;;;;;;;;;29.15;41.80;100782.94;1694444;84;20617;-55
2022/06/19 11:57:11;;;;;;;;;;;;;;;29.17;41.54;100783.50;1702053;83;20642;-55
2022/06/19 12:00:20;;;;;;;;;;;;;;;29.15;41.33;100781.53;1702641;83;20244;-55
2022/06/19 12:03:37;;;;;;;;;;;;;;;29.13;41.13;100779.55;1703551;83;20216;-56
2022/06/19 12:06:50;;;;;;;;;;;;;;;29.02;40.93;100777.88;1764165;80;20246;-55
2022/06/19 12:10:04;;;;;;;;;;;;;;;29.04;40.85;100770.53;1739015;81;20486;-55
2022/06/19 12:13:13;;;;;;;;;;;;;;;29.12;40.77;100768.00;1738243;81;20225;-55
2022/06/19 12:16:27;;;;;;;;;;;;;;;29.22;40.51;100771.34;1738865;81;20542;-55
2022/06/19 12:19:34;;;;;;;;;;;;;;;29.17;40.28;100759.53;1723947;82;20202;-55
2022/06/19 12:23:11;;;;;;;;;;;;;;;29.11;40.02;100768.30;1738854;82;20205;-54
2022/06/19 12:26:17;;;;;;;;;;;;;;;29.02;39.82;100753.91;1696929;82;20193;-54
2022/06/19 12:29:28;;;;;;;;;;;;;;;28.92;39.54;100749.70;1718864;83;20270;-55
2022/06/19 12:32:38;;;;;;;;;;;;;;;28.90;39.42;100752.55;1727436;83;20211;-55
2022/06/19 12:35:46;;;;;;;;;;;;;;;28.94;39.35;100739.55;1728091;83;20203;-56
2022/06/19 12:38:51;;;;;;;;;;;;;;;28.98;39.25;100753.36;1763161;79;20516;-55
2022/06/19 12:42:09;;;;;;;;;;;;;;;28.97;39.06;100749.69;1792164;79;20261;-56
2022/06/19 12:45:30;;;;;;;;;;;;;;;28.94;38.88;100736.73;1793165;79;20446;-55
2022/06/19 12:49:04;;;;;;;;;;;;;;;28.92;38.71;100737.02;1796083;80;20589;-57
2022/06/19 12:52:17;;;;;;;;;;;;;;;28.92;38.58;100744.66;1776156;79;20229;-55
2022/06/19 12:55:26;;;;;;;;;;;;;;;28.93;38.45;100746.33;1779470;81;20225;-55
2022/06/19 12:58:53;;;;;;;;;;;;;;;28.99;38.35;100736.71;1780053;80;20261;-55
2022/06/19 13:02:08;;;;;;;;;;;;;;;29.05;38.26;100731.35;1779823;79;20195;-55
2022/06/19 13:05:32;;;;;;;;;;;;;;;29.05;38.07;100735.58;1754412;82;20560;-56
2022/06/19 13:09:05;;;;;;;;;;;;;;;29.09;38.01;100729.10;1792380;79;20530;-55
2022/06/19 13:12:22;;;;;;;;;;;;;;;29.16;37.87;100731.61;1779166;79;20189;-56
2022/06/19 13:15:43;;;;;;;;;;;;;;;29.22;37.66;100733.27;1725034;83;20222;-56
2022/06/19 13:18:53;;;;;;;;;;;;;;;29.20;37.56;100719.45;1734479;82;20179;-55
2022/06/19 13:22:09;;;;;;;;;;;;;;;29.22;37.38;100724.80;1727533;82;20598;-55
2022/06/19 13:25:23;;;;;;;;;;;;;;;29.13;37.25;100719.47;1730063;82;20199;-55
2022/06/19 13:28:51;;;;;;;;;;;;;;;29.13;37.15;100719.47;1716338;83;20279;-55
2022/06/19 13:31:57;;;;;;;;;;;;;;;29.16;37.04;100711.28;1717041;83;20473;-55
2022/06/19 13:35:17;;;;;;;;;;;;;;;29.14;36.82;100721.18;1716788;83;20307;-55
2022/06/19 13:38:37;;;;;;;;;;;;;;;29.12;36.81;100714.42;1717237;83;20279;-55
2022/06/19 13:41:54;;;;;;;;;;;;;;;29.11;36.64;100716.13;1684846;85;20291;-55
2022/06/19 13:45:21;;;;;;;;;;;;;;;29.13;36.57;100712.42;1682242;85;20191;-55
2022/06/19 13:48:53;;;;;;;;;;;;;;;29.15;36.46;100704.52;1675421;85;20222;-55
2022/06/19 13:52:18;;;;;;;;;;;;;;;29.15;36.36;100718.63;1684267;85;20218;-55
2022/06/19 13:55:50;;;;;;;;;;;;;;;29.14;36.21;100710.72;1720406;80;20275;-56
2022/06/19 13:59:17;;;;;;;;;;;;;;;29.09;36.06;100711.33;1717558;83;20219;-55
2022/06/19 14:02:43;;;;;;;;;;;;;;;29.14;36.01;100716.95;1717814;83;20260;-55
2022/06/19 14:05:52;;;;;;;;;;;;;;;29.20;35.84;100708.17;1717407;83;20247;-55
2022/06/19 14:09:00;;;;;;;;;;;;;;;29.19;35.75;100696.59;1717842;83;20564;-56
2022/06/19 14:12:07;;;;;;;;;;;;;;;29.21;35.69;100704.77;1717526;83;20231;-56
2022/06/19 14:15:50;;;;;;;;;;;;;;;29.24;35.63;100702.77;1716667;83;20204;-56
2022/06/19 14:18:59;;;;;;;;;;;;;;;29.23;35.53;100699.13;1716731;83;20690;-56
2022/06/19 14:22:36;;;;;;;;;;;;;;;29.25;35.47;100691.78;1716708;83;20619;-55
2022/06/19 14:25:49;;;;;;;;;;;;;;;29.24;35.40;100692.90;1716630;83;20204;-55
2022/06/19 14:29:17;;;;;;;;;;;;;;;29.23;35.33;100689.81;1707365;84;20208;-55
2022/06/19 14:32:31;;;;;;;;;;;;;;;29.24;35.24;100692.90;1713274;82;20187;-56
2022/06/19 14:35:41;;;;;;;;;;;;;;;29.31;35.16;100688.34;1730511;83;20878;-56
2022/06/19 14:38:46;;;;;;;;;;;;;;;29.36;35.04;100687.77;1730403;82;20226;-55
2022/06/19 14:41:52;;;;;;;;;;;;;;;29.37;34.92;100678.74;1729913;83;20638;-55
2022/06/19 14:45:04;;;;;;;;;;;;;;;29.36;34.87;100682.13;1713954;83;20622;-55
2022/06/19 14:48:31;;;;;;;;;;;;;;;29.31;34.79;100675.09;1729699;82;20214;-55
2022/06/19 14:51:58;;;;;;;;;;;;;;;29.28;34.69;100679.91;1729953;82;20230;-55
2022/06/19 14:55:07;;;;;;;;;;;;;;;29.29;34.64;100694.28;1731802;81;20186;-55
2022/06/19 14:58:20;;;;;;;;;;;;;;;29.28;34.53;100691.76;1730823;82;20215;-55
2022/06/19 15:01:34;;;;;;;;;;;;;;;29.26;34.48;100681.36;1730314;82;20503;-56
2022/06/19 15:04:40;;;;;;;;;;;;;;;29.33;34.38;100678.48;1730610;82;20570;-56
2022/06/19 15:07:48;;;;;;;;;;;;;;;29.37;34.15;100673.92;1731318;82;20207;-56
2022/06/19 15:11:09;;;;;;;;;;;;;;;29.40;34.05;100671.92;1729031;83;20203;-55
2022/06/19 15:14:25;;;;;;;;;;;;;;;29.41;33.96;100673.63;1713477;83;20212;-55
2022/06/19 15:17:51;;;;;;;;;;;;;;;29.37;33.88;100677.33;1713004;84;20576;-54
2022/06/19 15:21:06;;;;;;;;;;;;;;;29.36;33.78;100679.30;1713175;84;20263;-55
2022/06/19 15:24:21;;;;;;;;;;;;;;;29.35;33.64;100678.19;1713795;83;20596;-55
2022/06/19 15:27:35;;;;;;;;;;;;;;;29.48;33.57;100675.53;1720495;81;20207;-55
2022/06/19 15:30:44;;;;;;;;;;;;;;;29.60;33.41;100666.15;1673822;85;20263;-54
2022/06/19 15:33:52;;;;;;;;;;;;;;;29.59;33.27;100674.32;1700827;83;20221;-55
2022/06/19 15:37:02;;;;;;;;;;;;;;;29.50;33.15;100669.04;1735454;82;20635;-54
2022/06/19 15:40:21;;;;;;;;;;;;;;;29.43;33.06;100672.74;1735657;82;20630;-55
2022/06/19 15:43:32;;;;;;;;;;;;;;;29.40;33.05;100674.74;1753485;81;20329;-55
2022/06/19 15:46:36;;;;;;;;;;;;;;;29.41;33.01;100662.34;1735507;81;20637;-55
2022/06/19 15:49:54;;;;;;;;;;;;;;;29.52;32.97;100668.19;1743706;80;20210;-56
2022/06/19 15:53:04;;;;;;;;;;;;;;;29.56;32.82;100667.86;1742082;82;20202;-56
2022/06/19 15:56:12;;;;;;;;;;;;;;;29.54;32.67;100669.30;1742531;82;20818;-56
2022/06/19 15:59:23;;;;;;;;;;;;;;;29.55;32.61;100669.01;1738363;82;20190;-56
2022/06/19 16:02:35;;;;;;;;;;;;;;;29.53;32.57;100674.66;1700244;84;20257;-56
2022/06/19 16:05:40;;;;;;;;;;;;;;;29.42;32.51;100673.89;1743349;82;20209;-55
2022/06/19 16:08:48;;;;;;;;;;;;;;;29.31;32.50;100678.47;1746387;82;20238;-56
2022/06/19 16:12:02;;;;;;;;;;;;;;;29.21;32.52;100672.33;1746108;82;20249;-56
2022/06/19 16:15:25;;;;;;;;;;;;;;;29.15;32.52;100677.73;1745671;82;20210;-55
2022/06/19 16:18:34;;;;;;;;;;;;;;;29.12;32.54;100678.31;1746345;82;20193;-56
2022/06/19 16:21:41;;;;;;;;;;;;;;;29.52;32.57;100682.30;1746184;82;20214;-56
2022/06/19 16:25:00;;;;;;;;;;;;;;;30.39;32.29;100677.89;1746873;82;20217;-56
2022/06/19 16:28:07;;;;;;;;;;;;;;;31.32;31.70;100674.46;1759189;79;20243;-56
2022/06/19 16:31:15;;;;;;;;;;;;;;;32.07;31.07;100677.50;1772351;81;20227;-56